sensor_id;sensor_type;location;lat;lon;timestamp;temperature;humidity
65637;DHT22;52327;42.622;23.316;2024-03-25T00:01:30;3.73;91.79
65637;DHT22;52327;42.622;23.316;2024-03-25T00:03:56;3.76;90.98
65637;DHT22;52327;42.622;23.316;2024-03-25T00:06:24;3.81;91.30
65637;DHT22;52327;42.622;23.316;2024-03-25T00:08:50;3.75;91.42
65637;DHT22;52327;42.622;23.316;2024-03-25T00:11:15;3.81;91.38
65637;DHT22;52327;42.622;23.316;2024-03-25T00:13:41;3.78;91.50
65637;DHT22;52327;42.622;23.316;2024-03-25T00:16:06;3.78;91.57
65637;DHT22;52327;42.622;23.316;2024-03-25T00:18:32;3.68;92.20
65637;DHT22;52327;42.622;23.316;2024-03-25T00:20:58;3.61;92.75
65637;DHT22;52327;42.622;23.316;2024-03-25T00:23:23;3.59;92.70
65637;DHT22;52327;42.622;23.316;2024-03-25T00:25:49;3.66;92.41
65637;DHT22;52327;42.622;23.316;2024-03-25T00:28:15;3.66;92.90
65637;DHT22;52327;42.622;23.316;2024-03-25T00:30:40;3.68;92.14
65637;DHT22;52327;42.622;23.316;2024-03-25T00:33:06;3.59;92.24
65637;DHT22;52327;42.622;23.316;2024-03-25T00:35:35;3.52;92.03
65637;DHT22;52327;42.622;23.316;2024-03-25T00:38:00;3.54;92.55
65637;DHT22;52327;42.622;23.316;2024-03-25T00:40:26;3.59;92.75
65637;DHT22;52327;42.622;23.316;2024-03-25T00:42:51;3.55;92.20
65637;DHT22;52327;42.622;23.316;2024-03-25T00:45:17;3.51;92.05
65637;DHT22;52327;42.622;23.316;2024-03-25T00:47:43;3.54;92.79
65637;DHT22;52327;42.622;23.316;2024-03-25T00:50:08;3.46;92.77
65637;DHT22;52327;42.622;23.316;2024-03-25T00:52:34;3.45;92.59
65637;DHT22;52327;42.622;23.316;2024-03-25T00:55:00;3.46;92.59
65637;DHT22;52327;42.622;23.316;2024-03-25T00:57:26;3.52;92.74
65637;DHT22;52327;42.622;23.316;2024-03-25T00:59:51;3.62;92.24
65637;DHT22;52327;42.622;23.316;2024-03-25T01:02:17;3.50;92.22
65637;DHT22;52327;42.622;23.316;2024-03-25T01:04:42;3.44;92.18
65637;DHT22;52327;42.622;23.316;2024-03-25T01:07:08;3.46;92.75
65637;DHT22;52327;42.622;23.316;2024-03-25T01:09:36;3.52;92.14
65637;DHT22;52327;42.622;23.316;2024-03-25T01:12:02;3.48;92.27
65637;DHT22;52327;42.622;23.316;2024-03-25T01:14:27;3.48;92.92
65637;DHT22;52327;42.622;23.316;2024-03-25T01:16:52;3.32;93.24
65637;DHT22;52327;42.622;23.316;2024-03-25T01:19:18;3.34;93.59
65637;DHT22;52327;42.622;23.316;2024-03-25T01:21:46;3.48;93.52
65637;DHT22;52327;42.622;23.316;2024-03-25T01:24:11;3.66;92.72
65637;DHT22;52327;42.622;23.316;2024-03-25T01:26:37;3.82;92.48
65637;DHT22;52327;42.622;23.316;2024-03-25T01:29:02;3.97;92.09
65637;DHT22;52327;42.622;23.316;2024-03-25T01:31:27;3.99;92.32
65637;DHT22;52327;42.622;23.316;2024-03-25T01:33:53;4.09;92.47
65637;DHT22;52327;42.622;23.316;2024-03-25T01:36:19;4.17;92.33
65637;DHT22;52327;42.622;23.316;2024-03-25T01:38:44;4.34;92.39
65637;DHT22;52327;42.622;23.316;2024-03-25T01:41:13;4.41;92.29
65637;DHT22;52327;42.622;23.316;2024-03-25T01:43:41;4.64;92.44
65637;DHT22;52327;42.622;23.316;2024-03-25T01:46:07;4.75;92.50
65637;DHT22;52327;42.622;23.316;2024-03-25T01:48:32;4.88;92.36
65637;DHT22;52327;42.622;23.316;2024-03-25T01:50:58;4.96;92.22
65637;DHT22;52327;42.622;23.316;2024-03-25T01:53:25;5.08;92.21
65637;DHT22;52327;42.622;23.316;2024-03-25T01:55:52;5.05;91.51
65637;DHT22;52327;42.622;23.316;2024-03-25T01:58:21;4.88;90.28
65637;DHT22;52327;42.622;23.316;2024-03-25T02:00:46;4.47;90.46
65637;DHT22;52327;42.622;23.316;2024-03-25T02:03:12;4.29;90.67
65637;DHT22;52327;42.622;23.316;2024-03-25T02:05:38;4.06;91.31
65637;DHT22;52327;42.622;23.316;2024-03-25T02:08:03;3.99;92.30
65637;DHT22;52327;42.622;23.316;2024-03-25T02:10:29;3.93;92.34
65637;DHT22;52327;42.622;23.316;2024-03-25T02:12:55;3.81;92.36
65637;DHT22;52327;42.622;23.316;2024-03-25T02:15:20;3.79;92.52
65637;DHT22;52327;42.622;23.316;2024-03-25T02:17:46;3.75;92.76
65637;DHT22;52327;42.622;23.316;2024-03-25T02:20:12;3.66;92.57
65637;DHT22;52327;42.622;23.316;2024-03-25T02:22:41;3.51;92.37
65637;DHT22;52327;42.622;23.316;2024-03-25T02:25:08;3.38;93.31
65637;DHT22;52327;42.622;23.316;2024-03-25T02:27:35;3.39;93.27
65637;DHT22;52327;42.622;23.316;2024-03-25T02:30:05;3.38;92.83
65637;DHT22;52327;42.622;23.316;2024-03-25T02:32:31;3.35;92.91
65637;DHT22;52327;42.622;23.316;2024-03-25T02:34:57;3.36;92.81
65637;DHT22;52327;42.622;23.316;2024-03-25T02:37:24;3.05;93.25
65637;DHT22;52327;42.622;23.316;2024-03-25T02:39:49;3.00;93.29
65637;DHT22;52327;42.622;23.316;2024-03-25T02:42:15;3.00;93.24
65637;DHT22;52327;42.622;23.316;2024-03-25T02:44:41;3.08;93.03
65637;DHT22;52327;42.622;23.316;2024-03-25T02:47:08;3.14;92.28
65637;DHT22;52327;42.622;23.316;2024-03-25T02:49:34;3.10;91.75
65637;DHT22;52327;42.622;23.316;2024-03-25T02:52:00;3.11;91.79
65637;DHT22;52327;42.622;23.316;2024-03-25T02:54:26;3.20;91.10
65637;DHT22;52327;42.622;23.316;2024-03-25T02:56:52;3.07;91.07
65637;DHT22;52327;42.622;23.316;2024-03-25T02:59:17;2.97;90.53
65637;DHT22;52327;42.622;23.316;2024-03-25T03:01:42;2.84;91.21
65637;DHT22;52327;42.622;23.316;2024-03-25T03:04:08;2.75;91.86
65637;DHT22;52327;42.622;23.316;2024-03-25T03:06:33;2.76;91.06
65637;DHT22;52327;42.622;23.316;2024-03-25T03:08:59;2.87;92.08
65637;DHT22;52327;42.622;23.316;2024-03-25T03:11:24;2.83;91.76
65637;DHT22;52327;42.622;23.316;2024-03-25T03:13:52;2.66;91.01
65637;DHT22;52327;42.622;23.316;2024-03-25T03:16:18;2.63;91.72
65637;DHT22;52327;42.622;23.316;2024-03-25T03:18:43;2.70;90.90
65637;DHT22;52327;42.622;23.316;2024-03-25T03:21:09;2.84;90.77
65637;DHT22;52327;42.622;23.316;2024-03-25T03:23:34;2.89;90.79
65637;DHT22;52327;42.622;23.316;2024-03-25T03:26:00;2.93;89.71
65637;DHT22;52327;42.622;23.316;2024-03-25T03:28:25;2.99;89.15
65637;DHT22;52327;42.622;23.316;2024-03-25T03:30:53;3.05;89.34
65637;DHT22;52327;42.622;23.316;2024-03-25T03:33:18;3.11;90.69
65637;DHT22;52327;42.622;23.316;2024-03-25T03:35:44;3.10;88.76
65637;DHT22;52327;42.622;23.316;2024-03-25T03:38:09;3.21;90.30
65637;DHT22;52327;42.622;23.316;2024-03-25T03:40:35;3.30;87.55
65637;DHT22;52327;42.622;23.316;2024-03-25T03:43:00;3.24;87.63
65637;DHT22;52327;42.622;23.316;2024-03-25T03:45:25;3.39;87.87
65637;DHT22;52327;42.622;23.316;2024-03-25T03:47:51;3.46;88.69
65637;DHT22;52327;42.622;23.316;2024-03-25T03:50:17;3.32;88.03
65637;DHT22;52327;42.622;23.316;2024-03-25T03:52:42;3.34;89.28
65637;DHT22;52327;42.622;23.316;2024-03-25T03:55:08;3.36;89.95
65637;DHT22;52327;42.622;23.316;2024-03-25T03:57:33;3.23;87.01
65637;DHT22;52327;42.622;23.316;2024-03-25T03:59:59;3.17;88.66
65637;DHT22;52327;42.622;23.316;2024-03-25T04:02:27;3.20;86.86
65637;DHT22;52327;42.622;23.316;2024-03-25T04:04:53;3.24;87.32
65637;DHT22;52327;42.622;23.316;2024-03-25T04:07:19;3.05;86.43
65637;DHT22;52327;42.622;23.316;2024-03-25T04:09:44;3.07;84.07
65637;DHT22;52327;42.622;23.316;2024-03-25T04:12:11;3.01;84.81
65637;DHT22;52327;42.622;23.316;2024-03-25T04:14:37;3.03;85.86
65637;DHT22;52327;42.622;23.316;2024-03-25T04:17:04;3.01;84.00
65637;DHT22;52327;42.622;23.316;2024-03-25T04:19:30;3.03;86.27
65637;DHT22;52327;42.622;23.316;2024-03-25T04:21:55;3.01;86.08
65637;DHT22;52327;42.622;23.316;2024-03-25T04:24:21;3.04;83.27
65637;DHT22;52327;42.622;23.316;2024-03-25T04:26:46;2.94;82.89
65637;DHT22;52327;42.622;23.316;2024-03-25T04:29:14;2.91;83.95
65637;DHT22;52327;42.622;23.316;2024-03-25T04:31:39;2.91;85.18
65637;DHT22;52327;42.622;23.316;2024-03-25T04:34:05;2.93;84.61
65637;DHT22;52327;42.622;23.316;2024-03-25T04:36:30;2.97;83.48
65637;DHT22;52327;42.622;23.316;2024-03-25T04:38:59;3.00;83.65
65637;DHT22;52327;42.622;23.316;2024-03-25T04:41:27;2.90;83.98
65637;DHT22;52327;42.622;23.316;2024-03-25T04:43:53;2.90;82.29
65637;DHT22;52327;42.622;23.316;2024-03-25T04:46:21;2.96;83.41
65637;DHT22;52327;42.622;23.316;2024-03-25T04:48:47;2.94;85.64
65637;DHT22;52327;42.622;23.316;2024-03-25T04:51:12;2.89;82.29
65637;DHT22;52327;42.622;23.316;2024-03-25T04:53:38;2.93;83.44
65637;DHT22;52327;42.622;23.316;2024-03-25T04:56:03;2.86;83.60
65637;DHT22;52327;42.622;23.316;2024-03-25T04:58:29;3.01;84.32
65637;DHT22;52327;42.622;23.316;2024-03-25T05:00:54;3.08;82.12
65637;DHT22;52327;42.622;23.316;2024-03-25T05:03:23;2.94;82.63
65637;DHT22;52327;42.622;23.316;2024-03-25T05:05:48;2.93;82.43
65637;DHT22;52327;42.622;23.316;2024-03-25T05:08:14;2.79;83.16
65637;DHT22;52327;42.622;23.316;2024-03-25T05:10:39;2.80;83.13
65637;DHT22;52327;42.622;23.316;2024-03-25T05:13:05;2.84;82.50
65637;DHT22;52327;42.622;23.316;2024-03-25T05:15:30;2.90;83.60
65637;DHT22;52327;42.622;23.316;2024-03-25T05:17:56;3.00;82.32
65637;DHT22;52327;42.622;23.316;2024-03-25T05:20:21;2.96;82.89
65637;DHT22;52327;42.622;23.316;2024-03-25T05:22:50;3.07;82.22
65637;DHT22;52327;42.622;23.316;2024-03-25T05:25:15;3.07;83.76
65637;DHT22;52327;42.622;23.316;2024-03-25T05:27:41;3.11;83.32
65637;DHT22;52327;42.622;23.316;2024-03-25T05:30:09;3.04;83.68
65637;DHT22;52327;42.622;23.316;2024-03-25T05:32:34;3.00;81.41
65637;DHT22;52327;42.622;23.316;2024-03-25T05:35:00;3.00;81.77
65637;DHT22;52327;42.622;23.316;2024-03-25T05:37:25;3.10;81.50
65637;DHT22;52327;42.622;23.316;2024-03-25T05:39:51;3.04;80.79
65637;DHT22;52327;42.622;23.316;2024-03-25T05:42:25;3.00;78.52
65637;DHT22;52327;42.622;23.316;2024-03-25T05:44:50;2.96;81.88
65637;DHT22;52327;42.622;23.316;2024-03-25T05:47:16;2.89;79.42
65637;DHT22;52327;42.622;23.316;2024-03-25T05:49:53;2.91;80.80
65637;DHT22;52327;42.622;23.316;2024-03-25T05:52:34;2.87;79.70
65637;DHT22;52327;42.622;23.316;2024-03-25T05:55:10;3.00;80.27
65637;DHT22;52327;42.622;23.316;2024-03-25T05:57:45;2.93;80.28
65637;DHT22;52327;42.622;23.316;2024-03-25T06:00:12;3.00;80.28
65637;DHT22;52327;42.622;23.316;2024-03-25T06:02:38;2.87;80.36
65637;DHT22;52327;42.622;23.316;2024-03-25T06:05:04;2.90;80.28
65637;DHT22;52327;42.622;23.316;2024-03-25T06:07:30;2.93;81.28
65637;DHT22;52327;42.622;23.316;2024-03-25T06:09:56;3.10;81.39
65637;DHT22;52327;42.622;23.316;2024-03-25T06:12:24;3.00;79.65
65637;DHT22;52327;42.622;23.316;2024-03-25T06:14:49;3.05;80.20
65637;DHT22;52327;42.622;23.316;2024-03-25T06:17:15;3.01;79.23
65637;DHT22;52327;42.622;23.316;2024-03-25T06:19:40;2.87;79.26
65637;DHT22;52327;42.622;23.316;2024-03-25T06:22:09;2.79;78.41
65637;DHT22;52327;42.622;23.316;2024-03-25T06:24:34;2.93;81.18
65637;DHT22;52327;42.622;23.316;2024-03-25T06:27:00;2.99;78.85
65637;DHT22;52327;42.622;23.316;2024-03-25T06:29:27;3.05;80.17
65637;DHT22;52327;42.622;23.316;2024-03-25T06:32:00;3.08;77.95
65637;DHT22;52327;42.622;23.316;2024-03-25T06:34:45;3.30;77.43
65637;DHT22;52327;42.622;23.316;2024-03-25T06:37:10;3.34;76.00
65637;DHT22;52327;42.622;23.316;2024-03-25T06:39:35;3.62;75.77
65637;DHT22;52327;42.622;23.316;2024-03-25T06:42:01;3.68;75.85
65637;DHT22;52327;42.622;23.316;2024-03-25T06:44:26;3.45;74.70
65637;DHT22;52327;42.622;23.316;2024-03-25T06:46:52;3.55;75.57
65637;DHT22;52327;42.622;23.316;2024-03-25T06:49:17;3.66;76.64
65637;DHT22;52327;42.622;23.316;2024-03-25T06:51:42;3.82;77.22
65637;DHT22;52327;42.622;23.316;2024-03-25T06:54:08;3.96;74.02
65637;DHT22;52327;42.622;23.316;2024-03-25T06:56:33;4.02;76.09
65637;DHT22;52327;42.622;23.316;2024-03-25T06:59:00;4.06;76.73
65637;DHT22;52327;42.622;23.316;2024-03-25T07:01:25;4.18;75.78
65637;DHT22;52327;42.622;23.316;2024-03-25T07:03:50;4.05;75.58
65637;DHT22;52327;42.622;23.316;2024-03-25T07:06:18;4.38;75.91
65637;DHT22;52327;42.622;23.316;2024-03-25T07:08:43;4.30;74.23
65637;DHT22;52327;42.622;23.316;2024-03-25T07:11:09;4.17;74.22
65637;DHT22;52327;42.622;23.316;2024-03-25T07:13:34;4.17;76.56
65637;DHT22;52327;42.622;23.316;2024-03-25T07:16:01;4.33;72.49
65637;DHT22;52327;42.622;23.316;2024-03-25T07:18:29;4.36;73.69
65637;DHT22;52327;42.622;23.316;2024-03-25T07:20:54;4.37;73.60
65637;DHT22;52327;42.622;23.316;2024-03-25T07:23:20;4.58;73.19
65637;DHT22;52327;42.622;23.316;2024-03-25T07:25:45;4.56;74.26
65637;DHT22;52327;42.622;23.316;2024-03-25T07:28:10;4.65;73.64
65637;DHT22;52327;42.622;23.316;2024-03-25T07:30:36;4.78;72.06
65637;DHT22;52327;42.622;23.316;2024-03-25T07:33:01;4.69;71.79
65637;DHT22;52327;42.622;23.316;2024-03-25T07:35:27;4.69;72.90
65637;DHT22;52327;42.622;23.316;2024-03-25T07:37:52;4.65;72.71
65637;DHT22;52327;42.622;23.316;2024-03-25T07:40:19;4.75;76.78
65637;DHT22;52327;42.622;23.316;2024-03-25T07:42:44;4.71;70.72
65637;DHT22;52327;42.622;23.316;2024-03-25T07:45:10;4.91;70.91
65637;DHT22;52327;42.622;23.316;2024-03-25T07:47:35;4.72;69.95
65637;DHT22;52327;42.622;23.316;2024-03-25T07:50:01;5.08;71.46
65637;DHT22;52327;42.622;23.316;2024-03-25T07:52:27;5.09;73.66
65637;DHT22;52327;42.622;23.316;2024-03-25T07:54:53;5.00;70.79
65637;DHT22;52327;42.622;23.316;2024-03-25T07:57:19;4.99;69.07
65637;DHT22;52327;42.622;23.316;2024-03-25T07:59:45;5.33;69.27
65637;DHT22;52327;42.622;23.316;2024-03-25T08:02:10;5.57;67.86
65637;DHT22;52327;42.622;23.316;2024-03-25T08:04:36;5.44;71.44
65637;DHT22;52327;42.622;23.316;2024-03-25T08:07:01;5.50;68.31
65637;DHT22;52327;42.622;23.316;2024-03-25T08:09:28;5.44;68.85
65637;DHT22;52327;42.622;23.316;2024-03-25T08:11:53;5.35;69.83
65637;DHT22;52327;42.622;23.316;2024-03-25T08:14:18;5.44;67.17
65637;DHT22;52327;42.622;23.316;2024-03-25T08:16:44;5.44;69.50
65637;DHT22;52327;42.622;23.316;2024-03-25T08:19:09;5.28;68.41
65637;DHT22;52327;42.622;23.316;2024-03-25T08:21:37;5.47;68.97
65637;DHT22;52327;42.622;23.316;2024-03-25T08:24:03;5.60;71.43
65637;DHT22;52327;42.622;23.316;2024-03-25T08:26:29;5.77;70.17
65637;DHT22;52327;42.622;23.316;2024-03-25T08:28:54;5.86;70.92
65637;DHT22;52327;42.622;23.316;2024-03-25T08:31:19;5.70;70.10
65637;DHT22;52327;42.622;23.316;2024-03-25T08:33:45;5.86;71.78
65637;DHT22;52327;42.622;23.316;2024-03-25T08:36:10;5.87;71.23
65637;DHT22;52327;42.622;23.316;2024-03-25T08:38:36;6.00;72.52
65637;DHT22;52327;42.622;23.316;2024-03-25T08:41:01;5.94;69.17
65637;DHT22;52327;42.622;23.316;2024-03-25T08:43:27;5.91;70.75
65637;DHT22;52327;42.622;23.316;2024-03-25T08:45:52;5.94;69.77
65637;DHT22;52327;42.622;23.316;2024-03-25T08:48:18;6.18;71.09
65637;DHT22;52327;42.622;23.316;2024-03-25T08:50:43;6.02;68.23
65637;DHT22;52327;42.622;23.316;2024-03-25T08:53:09;5.98;69.21
65637;DHT22;52327;42.622;23.316;2024-03-25T08:55:34;5.94;70.88
65637;DHT22;52327;42.622;23.316;2024-03-25T08:58:00;6.00;70.65
65637;DHT22;52327;42.622;23.316;2024-03-25T09:00:26;6.04;70.04
65637;DHT22;52327;42.622;23.316;2024-03-25T09:02:53;5.97;70.15
65637;DHT22;52327;42.622;23.316;2024-03-25T09:05:19;6.08;70.96
65637;DHT22;52327;42.622;23.316;2024-03-25T09:07:45;5.88;68.74
65637;DHT22;52327;42.622;23.316;2024-03-25T09:10:11;5.86;70.51
65637;DHT22;52327;42.622;23.316;2024-03-25T09:12:55;5.78;70.69
65637;DHT22;52327;42.622;23.316;2024-03-25T09:15:20;5.57;71.54
65637;DHT22;52327;42.622;23.316;2024-03-25T09:17:46;5.74;73.50
65637;DHT22;52327;42.622;23.316;2024-03-25T09:20:11;5.78;72.16
65637;DHT22;52327;42.622;23.316;2024-03-25T09:22:43;6.11;69.37
65637;DHT22;52327;42.622;23.316;2024-03-25T09:25:09;6.02;70.27
65637;DHT22;52327;42.622;23.316;2024-03-25T09:27:35;6.22;70.14
65637;DHT22;52327;42.622;23.316;2024-03-25T09:30:01;6.61;71.40
65637;DHT22;52327;42.622;23.316;2024-03-25T09:32:26;6.59;69.69
65637;DHT22;52327;42.622;23.316;2024-03-25T09:34:52;6.83;67.97
65637;DHT22;52327;42.622;23.316;2024-03-25T09:37:17;6.65;68.79
65637;DHT22;52327;42.622;23.316;2024-03-25T09:39:43;6.75;68.24
65637;DHT22;52327;42.622;23.316;2024-03-25T09:42:14;6.77;67.74
65637;DHT22;52327;42.622;23.316;2024-03-25T09:44:39;6.66;68.38
65637;DHT22;52327;42.622;23.316;2024-03-25T09:47:05;6.75;67.35
65637;DHT22;52327;42.622;23.316;2024-03-25T09:49:32;6.48;66.47
65637;DHT22;52327;42.622;23.316;2024-03-25T09:51:58;6.48;68.38
65637;DHT22;52327;42.622;23.316;2024-03-25T09:54:23;6.90;69.31
65637;DHT22;52327;42.622;23.316;2024-03-25T09:56:49;6.72;67.04
65637;DHT22;52327;42.622;23.316;2024-03-25T09:59:15;6.87;67.77
65637;DHT22;52327;42.622;23.316;2024-03-25T10:01:42;7.05;66.67
65637;DHT22;52327;42.622;23.316;2024-03-25T10:04:08;7.11;64.71
65637;DHT22;52327;42.622;23.316;2024-03-25T10:06:33;7.03;68.65
65637;DHT22;52327;42.622;23.316;2024-03-25T10:08:59;7.05;70.78
65637;DHT22;52327;42.622;23.316;2024-03-25T10:11:26;6.63;67.88
65637;DHT22;52327;42.622;23.316;2024-03-25T10:13:53;6.83;69.96
65637;DHT22;52327;42.622;23.316;2024-03-25T10:16:18;7.00;66.35
65637;DHT22;52327;42.622;23.316;2024-03-25T10:18:44;6.89;67.90
65637;DHT22;52327;42.622;23.316;2024-03-25T10:21:10;7.05;67.31
65637;DHT22;52327;42.622;23.316;2024-03-25T10:23:35;7.24;64.88
65637;DHT22;52327;42.622;23.316;2024-03-25T10:26:06;7.27;64.00
65637;DHT22;52327;42.622;23.316;2024-03-25T10:28:31;7.51;65.15
65637;DHT22;52327;42.622;23.316;2024-03-25T10:31:03;7.13;64.25
65637;DHT22;52327;42.622;23.316;2024-03-25T10:33:29;7.23;65.22
65637;DHT22;52327;42.622;23.316;2024-03-25T10:35:56;7.25;65.02
65637;DHT22;52327;42.622;23.316;2024-03-25T10:38:23;7.30;65.00
65637;DHT22;52327;42.622;23.316;2024-03-25T10:40:52;7.24;63.53
65637;DHT22;52327;42.622;23.316;2024-03-25T10:43:20;7.18;64.63
65637;DHT22;52327;42.622;23.316;2024-03-25T10:45:47;7.15;64.91
65637;DHT22;52327;42.622;23.316;2024-03-25T10:48:19;7.27;62.50
65637;DHT22;52327;42.622;23.316;2024-03-25T10:50:47;7.30;62.27
65637;DHT22;52327;42.622;23.316;2024-03-25T10:53:18;7.59;58.77
65637;DHT22;52327;42.622;23.316;2024-03-25T10:55:46;7.45;61.54
65637;DHT22;52327;42.622;23.316;2024-03-25T10:58:15;7.54;60.36
65637;DHT22;52327;42.622;23.316;2024-03-25T11:00:44;7.45;57.75
65637;DHT22;52327;42.622;23.316;2024-03-25T11:03:11;7.68;62.19
65637;DHT22;52327;42.622;23.316;2024-03-25T11:05:37;7.88;60.65
65637;DHT22;52327;42.622;23.316;2024-03-25T11:08:15;7.71;60.74
65637;DHT22;52327;42.622;23.316;2024-03-25T11:10:41;7.64;57.98
65637;DHT22;52327;42.622;23.316;2024-03-25T11:13:14;7.50;58.98
65637;DHT22;52327;42.622;23.316;2024-03-25T11:15:41;7.43;59.63
65637;DHT22;52327;42.622;23.316;2024-03-25T11:18:13;7.52;59.92
65637;DHT22;52327;42.622;23.316;2024-03-25T11:20:38;7.52;63.61
65637;DHT22;52327;42.622;23.316;2024-03-25T11:23:11;7.62;58.58
65637;DHT22;52327;42.622;23.316;2024-03-25T11:25:37;7.34;58.27
65637;DHT22;52327;42.622;23.316;2024-03-25T11:28:03;7.54;59.64
65637;DHT22;52327;42.622;23.316;2024-03-25T11:30:29;7.85;59.05
65637;DHT22;52327;42.622;23.316;2024-03-25T11:32:57;7.82;60.04
65637;DHT22;52327;42.622;23.316;2024-03-25T11:35:23;7.75;58.88
65637;DHT22;52327;42.622;23.316;2024-03-25T11:37:49;7.58;61.60
65637;DHT22;52327;42.622;23.316;2024-03-25T11:40:18;7.17;65.16
65637;DHT22;52327;42.622;23.316;2024-03-25T11:42:45;6.69;67.28
65637;DHT22;52327;42.622;23.316;2024-03-25T11:45:19;6.56;64.67
65637;DHT22;52327;42.622;23.316;2024-03-25T11:47:46;6.73;64.22
65637;DHT22;52327;42.622;23.316;2024-03-25T11:50:13;6.66;64.92
65637;DHT22;52327;42.622;23.316;2024-03-25T11:52:39;6.72;63.90
65637;DHT22;52327;42.622;23.316;2024-03-25T11:55:05;7.13;64.20
65637;DHT22;52327;42.622;23.316;2024-03-25T11:57:37;7.27;63.59
65637;DHT22;52327;42.622;23.316;2024-03-25T12:00:07;7.05;61.43
65637;DHT22;52327;42.622;23.316;2024-03-25T12:02:36;7.32;64.58
65637;DHT22;52327;42.622;23.316;2024-03-25T12:05:11;7.47;63.32
65637;DHT22;52327;42.622;23.316;2024-03-25T12:07:36;7.43;65.73
65637;DHT22;52327;42.622;23.316;2024-03-25T12:10:03;7.24;64.04
65637;DHT22;52327;42.622;23.316;2024-03-25T12:12:47;7.45;63.27
65637;DHT22;52327;42.622;23.316;2024-03-25T12:15:13;7.62;62.81
65637;DHT22;52327;42.622;23.316;2024-03-25T12:17:39;7.89;60.42
65637;DHT22;52327;42.622;23.316;2024-03-25T12:20:06;8.16;59.74
65637;DHT22;52327;42.622;23.316;2024-03-25T12:22:36;8.17;57.51
65637;DHT22;52327;42.622;23.316;2024-03-25T12:25:03;8.02;57.27
65637;DHT22;52327;42.622;23.316;2024-03-25T12:27:29;8.02;58.46
65637;DHT22;52327;42.622;23.316;2024-03-25T12:30:07;7.78;62.02
65637;DHT22;52327;42.622;23.316;2024-03-25T12:32:43;7.28;59.46
65637;DHT22;52327;42.622;23.316;2024-03-25T12:35:11;7.64;59.69
65637;DHT22;52327;42.622;23.316;2024-03-25T12:37:46;7.81;60.59
65637;DHT22;52327;42.622;23.316;2024-03-25T12:40:30;8.19;57.96
65637;DHT22;52327;42.622;23.316;2024-03-25T12:42:59;8.43;57.02
65637;DHT22;52327;42.622;23.316;2024-03-25T12:45:24;8.81;56.91
65637;DHT22;52327;42.622;23.316;2024-03-25T12:47:50;9.07;52.35
65637;DHT22;52327;42.622;23.316;2024-03-25T12:50:16;9.53;51.36
65637;DHT22;52327;42.622;23.316;2024-03-25T12:52:44;9.22;53.67
65637;DHT22;52327;42.622;23.316;2024-03-25T12:55:12;8.98;55.73
65637;DHT22;52327;42.622;23.316;2024-03-25T12:57:38;9.44;55.66
65637;DHT22;52327;42.622;23.316;2024-03-25T13:00:03;9.14;54.96
65637;DHT22;52327;42.622;23.316;2024-03-25T13:02:33;9.02;60.87
65637;DHT22;52327;42.622;23.316;2024-03-25T13:05:01;8.58;56.32
65637;DHT22;52327;42.622;23.316;2024-03-25T13:07:26;8.36;57.87
65637;DHT22;52327;42.622;23.316;2024-03-25T13:10:01;9.04;59.73
65637;DHT22;52327;42.622;23.316;2024-03-25T13:12:28;8.79;59.24
65637;DHT22;52327;42.622;23.316;2024-03-25T13:14:53;9.33;55.42
65637;DHT22;52327;42.622;23.316;2024-03-25T13:17:19;8.89;56.28
65637;DHT22;52327;42.622;23.316;2024-03-25T13:19:46;9.76;54.38
65637;DHT22;52327;42.622;23.316;2024-03-25T13:22:15;9.49;53.01
65637;DHT22;52327;42.622;23.316;2024-03-25T13:24:43;8.47;54.95
65637;DHT22;52327;42.622;23.316;2024-03-25T13:27:09;9.35;54.40
65637;DHT22;52327;42.622;23.316;2024-03-25T13:29:34;9.25;52.60
65637;DHT22;52327;42.622;23.316;2024-03-25T13:32:02;9.20;57.78
65637;DHT22;52327;42.622;23.316;2024-03-25T13:34:37;8.56;54.54
65637;DHT22;52327;42.622;23.316;2024-03-25T13:37:02;8.54;55.23
65637;DHT22;52327;42.622;23.316;2024-03-25T13:39:28;8.43;57.32
65637;DHT22;52327;42.622;23.316;2024-03-25T13:41:53;8.22;54.13
65637;DHT22;52327;42.622;23.316;2024-03-25T13:44:19;9.15;54.30
65637;DHT22;52327;42.622;23.316;2024-03-25T13:46:44;9.01;52.74
65637;DHT22;52327;42.622;23.316;2024-03-25T13:49:10;8.71;53.59
65637;DHT22;52327;42.622;23.316;2024-03-25T13:51:38;8.61;54.73
65637;DHT22;52327;42.622;23.316;2024-03-25T13:54:03;8.32;53.06
65637;DHT22;52327;42.622;23.316;2024-03-25T13:56:29;8.09;55.83
65637;DHT22;52327;42.622;23.316;2024-03-25T13:58:54;8.38;56.19
65637;DHT22;52327;42.622;23.316;2024-03-25T14:01:21;8.25;55.26
65637;DHT22;52327;42.622;23.316;2024-03-25T14:03:47;8.20;57.88
65637;DHT22;52327;42.622;23.316;2024-03-25T14:06:12;8.07;54.05
65637;DHT22;52327;42.622;23.316;2024-03-25T14:08:37;7.56;57.97
65637;DHT22;52327;42.622;23.316;2024-03-25T14:11:03;7.21;59.93
65637;DHT22;52327;42.622;23.316;2024-03-25T14:13:29;7.11;62.76
65637;DHT22;52327;42.622;23.316;2024-03-25T14:15:54;6.79;63.47
65637;DHT22;52327;42.622;23.316;2024-03-25T14:18:20;6.99;65.48
65637;DHT22;52327;42.622;23.316;2024-03-25T14:20:45;7.10;62.91
65637;DHT22;52327;42.622;23.316;2024-03-25T14:23:11;7.10;62.77
65637;DHT22;52327;42.622;23.316;2024-03-25T14:25:37;7.01;66.59
65637;DHT22;52327;42.622;23.316;2024-03-25T14:28:03;6.97;65.44
65637;DHT22;52327;42.622;23.316;2024-03-25T14:30:47;6.97;63.53
65637;DHT22;52327;42.622;23.316;2024-03-25T14:33:12;6.86;63.13
65637;DHT22;52327;42.622;23.316;2024-03-25T14:35:39;6.99;65.43
65637;DHT22;52327;42.622;23.316;2024-03-25T14:38:04;7.11;67.05
65637;DHT22;52327;42.622;23.316;2024-03-25T14:40:30;7.18;65.44
65637;DHT22;52327;42.622;23.316;2024-03-25T14:42:56;7.04;62.77
65637;DHT22;52327;42.622;23.316;2024-03-25T14:45:21;7.34;62.88
65637;DHT22;52327;42.622;23.316;2024-03-25T14:47:50;8.00;61.94
65637;DHT22;52327;42.622;23.316;2024-03-25T14:50:16;8.47;60.38
65637;DHT22;52327;42.622;23.316;2024-03-25T14:52:41;8.19;57.78
65637;DHT22;52327;42.622;23.316;2024-03-25T14:55:09;8.29;60.77
65637;DHT22;52327;42.622;23.316;2024-03-25T14:57:36;8.67;58.20
65637;DHT22;52327;42.622;23.316;2024-03-25T15:00:02;8.87;58.61
65637;DHT22;52327;42.622;23.316;2024-03-25T15:02:28;9.28;58.00
65637;DHT22;52327;42.622;23.316;2024-03-25T15:04:53;9.15;58.76
65637;DHT22;52327;42.622;23.316;2024-03-25T15:07:19;8.74;58.23
65637;DHT22;52327;42.622;23.316;2024-03-25T15:09:44;8.20;60.38
65637;DHT22;52327;42.622;23.316;2024-03-25T15:12:10;7.85;61.84
65637;DHT22;52327;42.622;23.316;2024-03-25T15:14:37;7.86;60.66
65637;DHT22;52327;42.622;23.316;2024-03-25T15:17:02;7.56;61.23
65637;DHT22;52327;42.622;23.316;2024-03-25T15:19:28;7.28;60.07
65637;DHT22;52327;42.622;23.316;2024-03-25T15:21:53;7.40;61.65
65637;DHT22;52327;42.622;23.316;2024-03-25T15:24:18;7.30;60.71
65637;DHT22;52327;42.622;23.316;2024-03-25T15:26:44;7.31;62.10